Resolute Bay Airport

CYRB | YRB

Resolute Bay , Nunavut , Canada

Sunday, June 7th, 2020 | 01:12

Weather

CYRB 070600Z 29009KT 6SM -SHSN OVC011 M02/M02 A3012 RMK SC8 SLP207

Charts

No Charts Available

Gates

No Gates Available

Runways

1 Available

Active ATC

Events -Coming Soon-

1 Events Coming Up Soon

Next event:
CYRB Flyout